This is the latest recevied weather packets stored in our database for station/object K8RLH. If no packets are shown the sender has not sent any weather packets the latest 10 day(s).
| Time | Temp. | Humidity | Pressure | Rain* | Wind** | Luminosity | Snow |
|---|---|---|---|---|---|---|---|
| 1777584555 | 23.33° C | 56% | 1011 hPa | 0 mm | - | 107 W/m² | - |
| 1777584251 | 23.33° C | 56% | 1011 hPa | 0 mm | - | 99 W/m² | - |
| 1777583950 | 23.89° C | 56% | 1011 hPa | 0 mm | - | 191 W/m² | - |
| 1777583647 | 24.44° C | 51% | 1011.1 hPa | 0 mm | - | 107 W/m² | - |
| 1777583345 | 23.89° C | 54% | 1010.9 hPa | 0 mm | - | 169 W/m² | - |
| 1777583041 | 23.89° C | 55% | 1011.2 hPa | 0 mm | - | 265 W/m² | - |
| 1777582738 | 23.33° C | 54% | 1011.2 hPa | 0 mm | - | 278 W/m² | - |
| 1777582433 | 23.33° C | 54% | 1011.3 hPa | 0 mm | - | 200 W/m² | - |
| 1777582133 | 23.33° C | 52% | 1011.3 hPa | 0 mm | - | 266 W/m² | - |
| 1777581832 | 23.89° C | 51% | 1011.3 hPa | 0 mm | - | 193 W/m² | - |
| 1777581530 | 24.44° C | 48% | 1011.3 hPa | 0 mm | - | 275 W/m² | - |
| 1777581227 | 24.44° C | 50% | 1011.5 hPa | 0 mm | - | 275 W/m² | - |
| 1777580926 | 23.89° C | 54% | 1011.5 hPa | 0 mm | - | 284 W/m² | - |
| 1777580621 | 23.33° C | 55% | 1011.5 hPa | 0 mm | - | 357 W/m² | - |
| 1777580317 | 23.33° C | 53% | 1011.6 hPa | 0 mm | - | 293 W/m² | - |
| 1777580014 | 23.33° C | 56% | 1011.3 hPa | 0 mm | - | 304 W/m² | - |
| 1777579709 | 23.33° C | 55% | 1011.4 hPa | 0 mm | - | 272 W/m² | - |
| 1777579408 | 23.33° C | 55% | 1011.5 hPa | 0 mm | - | 247 W/m² | - |
| 1777579104 | 22.78° C | 57% | 1011.4 hPa | 0 mm | - | 170 W/m² | - |
| 1777578803 | 23.33° C | 58% | 1011.4 hPa | 0 mm | - | 155 W/m² | - |
| 1777578499 | 22.78° C | 59% | 1011.6 hPa | 0 mm | - | 133 W/m² | - |
| 1777578194 | 23.33° C | 58% | 1011.6 hPa | 0 mm | - | 106 W/m² | - |
| 1777577890 | 23.89° C | 56% | 1011.4 hPa | 0 mm | - | 135 W/m² | - |
| 1777577586 | 23.33° C | 60% | 1011.7 hPa | 0 mm | - | 118 W/m² | - |
| 1777577283 | 22.78° C | 60% | 1011.9 hPa | 0 mm | - | 151 W/m² | - |
* Rain latest hour (hover to see other rain measurements)
** Current wind speed in m/s (hover to see current wind gust speed)